| time (UTC) | temp C | wind direction | speed KPH | gust KPH | rain 1hr cm | rain 24hr cm | rain mn cm | humidity % | barometer mb |
| 20260503194204 | 15 | 250 | 9.7 | 17.7 | 0.00 | 0.00 | 0.00 | 79 | 1014.7 |
| 20260503193706 | 15 | 157 | 8.0 | 19.3 | 0.00 | 0.00 | 0.00 | 79 | 1014.6 |
| 20260503193205 | 15 | 186 | 8.0 | 19.3 | 0.00 | 0.00 | 0.00 | 79 | 1014.6 |
| 20260503192704 | 15 | 182 | 8.0 | 19.3 | 0.00 | 0.00 | 0.00 | 79 | 1014.7 |
| 20260503192204 | 15 | 175 | 8.0 | 19.3 | 0.00 | 0.00 | 0.00 | 78 | 1014.7 |
| 20260503191705 | 16 | 213 | 6.4 | 17.7 | 0.00 | 0.00 | 0.00 | 78 | 1014.6 |
| 20260503191204 | 16 | 199 | 8.0 | 20.9 | 0.00 | 0.00 | 0.00 | 78 | 1014.6 |
| 20260503190704 | 15 | 196 | 8.0 | 20.9 | 0.00 | 0.00 | 0.00 | 79 | 1014.6 |
| 20260503190203 | 15 | 211 | 9.7 | 20.9 | 0.00 | 0.00 | 0.00 | 79 | 1014.6 |
| 20260503185705 | 15 | 181 | 11.3 | 19.3 | 0.00 | 0.00 | 0.00 | 79 | 1014.6 |
| 20260503185204 | 15 | 161 | 9.7 | 19.3 | 0.00 | 0.00 | 0.00 | 78 | 1014.6 |
| 20260503184205 | 15 | 221 | 9.7 | 17.7 | 0.00 | 0.00 | 0.00 | 77 | 1014.6 |
| 20260503183205 | 15 | 222 | 6.4 | 14.5 | 0.00 | 0.00 | 0.00 | 78 | 1014.5 |
| 20260503182705 | 15 | 237 | 6.4 | 14.5 | 0.00 | 0.00 | 0.00 | 77 | 1014.4 |
| 20260503182204 | 15 | 199 | 6.4 | 12.9 | 0.00 | 0.00 | 0.00 | 78 | 1014.4 |
| 20260503181704 | 15 | 174 | 6.4 | 12.9 | 0.00 | 0.00 | 0.00 | 78 | 1014.3 |
| 20260503181205 | 15 | 209 | 6.4 | 11.3 | 0.00 | 0.00 | 0.00 | 79 | 1014.4 |
| 20260503180704 | 15 | 212 | 6.4 | 12.9 | 0.00 | 0.00 | 0.00 | 79 | 1014.4 |
| 20260503180204 | 15 | 205 | 4.8 | 12.9 | 0.00 | 0.00 | 0.00 | 80 | 1014.4 |
| 20260503175705 | 15 | 196 | 6.4 | 11.3 | 0.00 | 0.00 | 0.00 | 80 | 1014.4 |
| 20260503175204 | 15 | 199 | 4.8 | 16.1 | 0.00 | 0.00 | 0.00 | 79 | 1014.4 |
| 20260503174705 | 15 | 223 | 6.4 | 16.1 | 0.00 | 0.00 | 0.00 | 80 | 1014.5 |
| 20260503174204 | 15 | 198 | 8.0 | 17.7 | 0.00 | 0.00 | 0.00 | 79 | 1014.4 |
| 20260503173705 | 15 | 231 | 8.0 | 17.7 | 0.00 | 0.00 | 0.00 | 79 | 1014.4 |
| 20260503173206 | 15 | 237 | 8.0 | 16.1 | 0.00 | 0.00 | 0.00 | 79 | 1014.3 |
| 20260503172704 | 15 | 166 | 8.0 | 16.1 | 0.00 | 0.00 | 0.00 | 79 | 1014.3 |
| 20260503172204 | 15 | 194 | 8.0 | 16.1 | 0.00 | 0.00 | 0.00 | 79 | 1014.3 |
| 20260503171704 | 15 | 197 | 8.0 | 14.5 | 0.00 | 0.00 | 0.00 | 79 | 1014.2 |
| 20260503171205 | 15 | 211 | 8.0 | 16.1 | 0.00 | 0.00 | 0.00 | 79 | 1014.3 |
| 20260503170704 | 15 | 208 | 8.0 | 16.1 | 0.00 | 0.00 | 0.00 | 79 | 1014.3 |
| 20260503170205 | 14 | 210 | 6.4 | 12.9 | 0.00 | 0.00 | 0.00 | 79 | 1014.2 |
| 20260503150704 | 12 | 244 | 8.0 | 14.5 | 0.00 | 0.00 | 0.00 | 89 | 1013.9 |
| 20260503140205 | 12 | 250 | 0.0 | 3.2 | 0.00 | 0.00 | 0.00 | 89 | 1013.0 |
| 20260503130704 | 12 | 265 | 0.0 | 0.0 | 0.00 | 0.00 | 0.00 | 89 | 1012.4 |
| 20260503130205 | 12 | 265 | 0.0 | 0.0 | 0.00 | 0.00 | 0.00 | 89 | 1012.4 |
| 20260503120204 | 12 | 304 | 0.0 | 0.0 | 0.00 | 0.00 | 0.00 | 88 | 1012.1 |
| 20260503110704 | 12 | 262 | 1.6 | 1.6 | 0.00 | 0.00 | 0.00 | 85 | 1012.3 |
| 20260503110205 | 12 | 304 | 0.0 | 6.4 | 0.00 | 0.00 | 0.00 | 85 | 1012.3 |
| 20260503100204 | 12 | 10 | 1.6 | 6.4 | 0.00 | 0.00 | 0.00 | 84 | 1012.2 |
| 20260503090204 | 12 | 301 | 0.0 | 1.6 | 0.00 | 0.00 | 0.00 | 83 | 1012.4 |
| 20260503081204 | 13 | 248 | 0.0 | 0.0 | 0.00 | 0.00 | 0.00 | 82 | 1012.7 |
| 20260503072705 | 13 | 90 | 0.0 | 0.0 | 0.00 | 0.00 | 0.00 | 81 | 1012.8 |
| 20260503072205 | 13 | 90 | 0.0 | 0.0 | 0.00 | 0.00 | 0.00 | 81 | 1012.8 |
| 20260503071204 | 13 | 90 | 0.0 | 0.0 | 0.00 | 0.00 | 0.00 | 81 | 1012.7 |
| 20260503070704 | 13 | 117 | 0.0 | 0.0 | 0.00 | 0.00 | 0.00 | 81 | 1012.7 |
| 20260503060204 | 13 | 44 | 1.6 | 6.4 | 0.00 | 0.00 | 0.00 | 81 | 1012.8 |
| 20260503054704 | 13 | 29 | 3.2 | 11.3 | 0.00 | 0.00 | 0.00 | 81 | 1012.9 |
| 20260503054205 | 13 | 84 | 3.2 | 11.3 | 0.00 | 0.00 | 0.00 | 81 | 1012.9 |
| 20260503053705 | 13 | 73 | 1.6 | 11.3 | 0.00 | 0.00 | 0.00 | 81 | 1013.0 |
| 20260503053205 | 13 | 54 | 0.0 | 8.0 | 0.00 | 0.00 | 0.00 | 81 | 1013.1 |
| 20260503052204 | 13 | 78 | 0.0 | 8.0 | 0.00 | 0.00 | 0.00 | 81 | 1013.0 |
| 20260503051706 | 13 | 54 | 1.6 | 9.7 | 0.00 | 0.00 | 0.00 | 81 | 1013.1 |
| 20260503051204 | 13 | 40 | 1.6 | 9.7 | 0.00 | 0.00 | 0.00 | 80 | 1013.0 |
| 20260503050705 | 13 | 106 | 1.6 | 9.7 | 0.00 | 0.00 | 0.00 | 80 | 1013.1 |
| 20260503045705 | 13 | 0 | 0.0 | 11.3 | 0.00 | 0.00 | 0.00 | 80 | 1013.0 |
| 20260503045204 | 13 | 101 | 1.6 | 11.3 | 0.00 | 0.00 | 0.00 | 80 | 1013.0 |
| 20260503044704 | 13 | 302 | 1.6 | 11.3 | 0.00 | 0.00 | 0.00 | 80 | 1013.0 |
| 20260503044204 | 13 | 80 | 1.6 | 11.3 | 0.00 | 0.00 | 0.00 | 80 | 1013.0 |
| 20260503043704 | 13 | 355 | 3.2 | 12.9 | 0.00 | 0.00 | 0.00 | 80 | 1012.9 |
| 20260503043205 | 13 | 77 | 3.2 | 12.9 | 0.00 | 0.00 | 0.00 | 80 | 1012.7 |
| 20260503042206 | 13 | 85 | 3.2 | 12.9 | 0.00 | 0.00 | 0.00 | 80 | 1012.7 |
| 20260503041704 | 13 | 50 | 4.8 | 11.3 | 0.00 | 0.00 | 0.00 | 79 | 1012.6 |
| 20260503041205 | 13 | 64 | 4.8 | 11.3 | 0.00 | 0.00 | 0.00 | 79 | 1012.5 |
| 20260503040704 | 13 | 32 | 3.2 | 9.7 | 0.00 | 0.00 | 0.00 | 79 | 1012.4 |
| 20260503040205 | 14 | 55 | 3.2 | 12.9 | 0.00 | 0.00 | 0.00 | 79 | 1012.4 |
| 20260503035705 | 14 | 28 | 3.2 | 12.9 | 0.00 | 0.00 | 0.00 | 79 | 1012.2 |
| 20260503035205 | 14 | 78 | 4.8 | 14.5 | 0.00 | 0.00 | 0.00 | 79 | 1012.2 |
| 20260503034205 | 14 | 28 | 6.4 | 16.1 | 0.00 | 0.00 | 0.00 | 79 | 1012.1 |
| 20260503033704 | 14 | 69 | 4.8 | 16.1 | 0.00 | 0.00 | 0.00 | 79 | 1012.0 |
| 20260503033204 | 14 | 46 | 4.8 | 14.5 | 0.00 | 0.00 | 0.00 | 79 | 1011.9 |
| 20260503032705 | 14 | 73 | 4.8 | 16.1 | 0.00 | 0.00 | 0.00 | 78 | 1011.9 |
| 20260503032206 | 14 | 46 | 6.4 | 16.1 | 0.00 | 0.00 | 0.00 | 78 | 1011.8 |
| 20260503031204 | 14 | 88 | 4.8 | 16.1 | 0.00 | 0.00 | 0.00 | 78 | 1011.7 |
| 20260503030705 | 14 | 49 | 6.4 | 16.1 | 0.00 | 0.00 | 0.00 | 78 | 1011.7 |
| 20260503030204 | 15 | 23 | 4.8 | 14.5 | 0.00 | 0.00 | 0.00 | 78 | 1011.7 |
| 20260503025704 | 15 | 45 | 4.8 | 14.5 | 0.00 | 0.00 | 0.00 | 78 | 1011.6 |
| 20260503025205 | 15 | 50 | 6.4 | 14.5 | 0.00 | 0.00 | 0.00 | 77 | 1011.7 |
| 20260503024705 | 15 | 68 | 6.4 | 14.5 | 0.00 | 0.00 | 0.00 | 77 | 1011.6 |
| 20260503024204 | 15 | 39 | 4.8 | 12.9 | 0.00 | 0.00 | 0.00 | 77 | 1011.6 |
| 20260503023704 | 15 | 59 | 4.8 | 12.9 | 0.00 | 0.00 | 0.00 | 77 | 1011.6 |
| 20260503022704 | 15 | 77 | 6.4 | 12.9 | 0.00 | 0.00 | 0.00 | 76 | 1011.5 |
| 20260503022205 | 15 | 59 | 4.8 | 12.9 | 0.00 | 0.00 | 0.00 | 76 | 1011.5 |
| 20260503021704 | 15 | 55 | 4.8 | 11.3 | 0.00 | 0.00 | 0.00 | 76 | 1011.5 |
| 20260503020705 | 16 | 54 | 4.8 | 12.9 | 0.00 | 0.00 | 0.00 | 74 | 1011.4 |
| 20260503020205 | 16 | 94 | 4.8 | 12.9 | 0.00 | 0.00 | 0.00 | 73 | 1011.4 |
| 20260503015204 | 16 | 129 | 4.8 | 11.3 | 0.00 | 0.00 | 0.00 | 72 | 1011.6 |
| 20260503014705 | 16 | 86 | 3.2 | 8.0 | 0.00 | 0.00 | 0.00 | 71 | 1011.5 |
| 20260503014205 | 17 | 83 | 3.2 | 8.0 | 0.00 | 0.00 | 0.00 | 70 | 1011.5 |
| 20260503013705 | 17 | 92 | 1.6 | 8.0 | 0.00 | 0.00 | 0.00 | 70 | 1011.5 |
| 20260503012204 | 17 | 211 | 0.0 | 6.4 | 0.00 | 0.00 | 0.00 | 70 | 1011.6 |
| 20260503011705 | 17 | 160 | 1.6 | 8.0 | 0.00 | 0.00 | 0.00 | 71 | 1011.7 |
| 20260503011205 | 17 | 115 | 1.6 | 8.0 | 0.00 | 0.00 | 0.00 | 70 | 1011.7 |
| 20260503010704 | 17 | 159 | 1.6 | 9.7 | 0.00 | 0.00 | 0.00 | 70 | 1011.7 |
| 20260503010204 | 17 | 171 | 3.2 | 9.7 | 0.00 | 0.00 | 0.00 | 70 | 1011.8 |
| 20260503005704 | 17 | 183 | 3.2 | 11.3 | 0.00 | 0.00 | 0.00 | 70 | 1011.8 |
| 20260503005204 | 17 | 134 | 3.2 | 14.5 | 0.00 | 0.00 | 0.00 | 70 | 1011.8 |
| 20260503004704 | 17 | 192 | 4.8 | 14.5 | 0.00 | 0.00 | 0.00 | 70 | 1011.8 |
| 20260503004205 | 17 | 246 | 6.4 | 14.5 | 0.00 | 0.00 | 0.00 | 69 | 1011.8 |
| 20260503003704 | 17 | 190 | 6.4 | 14.5 | 0.00 | 0.00 | 0.00 | 69 | 1011.7 |
| 20260503003204 | 17 | 246 | 6.4 | 14.5 | 0.00 | 0.00 | 0.00 | 69 | 1011.8 |
| 20260503002704 | 18 | 232 | 6.4 | 14.5 | 0.00 | 0.00 | 0.00 | 68 | 1011.9 |
| 20260503002204 | 18 | 208 | 6.4 | 14.5 | 0.00 | 0.00 | 0.00 | 68 | 1011.8 |
| 20260503001706 | 18 | 215 | 6.4 | 14.5 | 0.00 | 0.00 | 0.00 | 69 | 1011.8 |
| 20260503001204 | 18 | 213 | 6.4 | 17.7 | 0.00 | 0.00 | 0.00 | 69 | 1011.9 |
| 20260503000704 | 17 | 250 | 8.0 | 17.7 | 0.00 | 0.00 | 0.00 | 70 | 1012.0 |
| 20260503000205 | 17 | 194 | 8.0 | 17.7 | 0.00 | 0.00 | 0.00 | 69 | 1012.0 |
| 20260502235706 | 17 | 186 | 8.0 | 17.7 | 0.00 | 0.00 | 0.00 | 69 | 1012.0 |
| 20260502235204 | 17 | 254 | 9.7 | 16.1 | 0.00 | 0.00 | 0.00 | 70 | 1012.1 |
| 20260502234704 | 17 | 212 | 8.0 | 20.9 | 0.00 | 0.00 | 0.00 | 69 | 1012.2 |
| 20260502234205 | 17 | 219 | 9.7 | 20.9 | 0.00 | 0.00 | 0.00 | 69 | 1012.2 |
| 20260502233704 | 17 | 242 | 9.7 | 20.9 | 0.00 | 0.00 | 0.00 | 69 | 1012.2 |
| 20260502233204 | 17 | 213 | 8.0 | 16.1 | 0.00 | 0.00 | 0.00 | 70 | 1012.3 |
| 20260502232705 | 17 | 184 | 6.4 | 17.7 | 0.00 | 0.00 | 0.00 | 70 | 1012.2 |
| 20260502232206 | 17 | 231 | 8.0 | 17.7 | 0.00 | 0.00 | 0.00 | 71 | 1012.3 |
| 20260502231704 | 17 | 159 | 8.0 | 17.7 | 0.00 | 0.00 | 0.00 | 71 | 1012.3 |
| 20260502231204 | 17 | 168 | 6.4 | 17.7 | 0.00 | 0.00 | 0.00 | 71 | 1012.4 |
| 20260502230204 | 17 | 241 | 6.4 | 20.9 | 0.00 | 0.00 | 0.00 | 73 | 1012.6 |
| 20260502225204 | 17 | 207 | 9.7 | 19.3 | 0.00 | 0.00 | 0.00 | 74 | 1012.9 |
| 20260502224705 | 17 | 205 | 9.7 | 20.9 | 0.00 | 0.00 | 0.00 | 74 | 1013.0 |
| 20260502224204 | 17 | 202 | 9.7 | 20.9 | 0.00 | 0.00 | 0.00 | 74 | 1013.1 |
| 20260502223704 | 17 | 203 | 8.0 | 20.9 | 0.00 | 0.00 | 0.00 | 73 | 1013.2 |
| 20260502223204 | 17 | 249 | 9.7 | 20.9 | 0.00 | 0.00 | 0.00 | 73 | 1013.2 |
| 20260502222704 | 17 | 178 | 8.0 | 20.9 | 0.00 | 0.00 | 0.00 | 73 | 1013.4 |
| 20260502222204 | 17 | 215 | 8.0 | 17.7 | 0.00 | 0.00 | 0.00 | 74 | 1013.4 |
| 20260502220705 | 17 | 222 | 8.0 | 19.3 | 0.00 | 0.00 | 0.00 | 75 | 1013.7 |
| 20260502220205 | 16 | 205 | 8.0 | 19.3 | 0.00 | 0.00 | 0.00 | 76 | 1013.9 |
| 20260502214706 | 16 | 228 | 8.0 | 14.5 | 0.00 | 0.00 | 0.00 | 77 | 1014.1 |
| 20260502213704 | 16 | 236 | 6.4 | 16.1 | 0.00 | 0.00 | 0.00 | 78 | 1014.3 |
| 20260502212705 | 16 | 250 | 6.4 | 16.1 | 0.00 | 0.00 | 0.00 | 79 | 1014.3 |
| 20260502212205 | 16 | 252 | 6.4 | 16.1 | 0.00 | 0.00 | 0.00 | 80 | 1014.3 |
| 20260502211704 | 16 | 161 | 6.4 | 16.1 | 0.00 | 0.00 | 0.00 | 81 | 1014.3 |
| 20260502211204 | 16 | 199 | 6.4 | 14.5 | 0.00 | 0.00 | 0.00 | 83 | 1014.2 |
| 20260502210705 | 15 | 211 | 6.4 | 14.5 | 0.00 | 0.00 | 0.00 | 83 | 1014.3 |
| 20260502205704 | 15 | 221 | 6.4 | 14.5 | 0.00 | 0.00 | 0.00 | 84 | 1014.4 |
| 20260502205204 | 15 | 200 | 8.0 | 17.7 | 0.00 | 0.00 | 0.00 | 84 | 1014.4 |
| 20260502204704 | 15 | 189 | 6.4 | 17.7 | 0.00 | 0.00 | 0.00 | 84 | 1014.6 |
| 20260502204204 | 15 | 225 | 9.7 | 17.7 | 0.00 | 0.00 | 0.00 | 85 | 1014.6 |
| 20260502203205 | 15 | 200 | 8.0 | 17.7 | 0.00 | 0.00 | 0.00 | 85 | 1014.9 |
| 20260502202704 | 14 | 185 | 8.0 | 17.7 | 0.00 | 0.00 | 0.00 | 85 | 1014.9 |
| 20260502202204 | 14 | 203 | 9.7 | 17.7 | 0.00 | 0.00 | 0.00 | 85 | 1015.0 |
| 20260502201204 | 14 | 196 | 8.0 | 17.7 | 0.00 | 0.00 | 0.00 | 86 | 1015.0 |
| 20260502200704 | 14 | 234 | 8.0 | 17.7 | 0.00 | 0.00 | 0.00 | 86 | 1015.3 |
| 20260502195704 | 14 | 211 | 8.0 | 16.1 | 0.00 | 0.00 | 0.00 | 87 | 1015.4 |
| 20260502195204 | 14 | 198 | 9.7 | 17.7 | 0.00 | 0.00 | 0.00 | 87 | 1015.5 |
| 20260502194705 | 13 | 211 | 9.7 | 17.7 | 0.00 | 0.00 | 0.00 | 87 | 1015.5 |